Alpine, TX

7:52 PM CST on February 01, 2015 (GMT -0600)
Thomas, Ave. A & N. Cockrell | Change Station
CLOSE
Current Station
Personal Weather Station
Location: Alpine, TX
Elevation: 4485 ft
Nearby Weather Stations

Elev 4485 ft 30.36 °N, 103.66 °W | Updated 12 seconds ago

Overcast
Overcast
46.2 °F
Feels Like 46 °F
N
0.0
Wind Variable Wind from WNW
Gusts 0.0 mph

Today
High -- | Low -- °F
--% Chance of Precip.
Yesterday
High -- | Low -- °F
Precip. -- in
7:45 AM 6:31 PM
Waxing Gibbous, 97% visible
Pressure 30.24 in
Visibility 10.0 miles
Clouds Scattered Clouds 1100 ft
Overcast 1700 ft
Windchill 46 °F
Dew Point 42 °F
Humidity 86%
Rainfall 0.00 in
Snow Depth Not available.
UV 0.0 out of 12
Pollen 2.00 out of 12
Air Quality Not available.
Flu Activity Not available.
METAR KE38 020135Z AUTO 06008KT 10SM SCT011 OVC017 08/05 A3024 RMK AO2 T00770051

More Conditions Fewer Conditions

Pressure 30.24 in
Visibility 10.0 miles
Clouds Scattered Clouds 1100 ft
Overcast 1700 ft
Windchill 46 °F
Dew Point 42 °F
Humidity 86%
Rainfall 0.00 in
Snow Depth Not available.
UV 0.0 out of 12
Pollen 2.00 out of 12
Air Quality Not available.
Flu Activity Not available.
METAR KE38 020135Z AUTO 06008KT 10SM SCT011 OVC017 08/05 A3024 RMK AO2 T00770051

More Conditions Fewer Conditions

10-Day Weather Forecast

Almanac

Astronomy

Feb. 01, 2015 Rise Set
Actual Time
Civil Twilight
Nautical Twilight
Astronomical Twilight
Moon
Length of Visible Light
Length of Day
Tomorrow will be .
, % of the Moon is Illuminated

Today's Extremes

State Highs State Lows

Community

WunderPhotos

Upload Photos

1,792,652 photos uploaded!

WunderBlogs® & News

Nearby

Air Quality

  Air Quality AQ Index Pollutant
Not available.

Snow Depth

Station Depth Elevation

Earthquake Activity

City Distance Mag. Time & Date
Minimum magnitude displayed is 2.5.

Coastal Water Temperatures

Place Temperature

Nearby Weather Stations